sensor_id;sensor_type;location;lat;lon;timestamp;P1;durP1;ratioP1;P2;durP2;ratioP2
60098;SDS011;62818;49.394;8.686;2024-01-07T00:01:47;17.45;;;10.20;;
60098;SDS011;62818;49.394;8.686;2024-01-07T00:03:49;14.98;;;9.23;;
60098;SDS011;62818;49.394;8.686;2024-01-07T00:05:51;13.23;;;9.50;;
60098;SDS011;62818;49.394;8.686;2024-01-07T00:07:52;17.15;;;11.70;;
60098;SDS011;62818;49.394;8.686;2024-01-07T00:09:52;14.90;;;10.00;;
60098;SDS011;62818;49.394;8.686;2024-01-07T00:11:53;13.35;;;9.05;;
60098;SDS011;62818;49.394;8.686;2024-01-07T00:13:53;15.88;;;9.27;;
60098;SDS011;62818;49.394;8.686;2024-01-07T00:15:54;17.70;;;10.25;;
60098;SDS011;62818;49.394;8.686;2024-01-07T00:17:55;18.65;;;11.73;;
60098;SDS011;62818;49.394;8.686;2024-01-07T00:19:56;16.77;;;10.40;;
60098;SDS011;62818;49.394;8.686;2024-01-07T00:21:57;14.15;;;9.13;;
60098;SDS011;62818;49.394;8.686;2024-01-07T00:23:58;13.13;;;8.13;;
60098;SDS011;62818;49.394;8.686;2024-01-07T00:25:58;13.52;;;9.65;;
60098;SDS011;62818;49.394;8.686;2024-01-07T00:27:58;17.17;;;10.23;;
60098;SDS011;62818;49.394;8.686;2024-01-07T00:29:59;16.85;;;11.15;;
60098;SDS011;62818;49.394;8.686;2024-01-07T00:31:59;16.88;;;10.15;;
60098;SDS011;62818;49.394;8.686;2024-01-07T00:34:00;17.67;;;11.68;;
60098;SDS011;62818;49.394;8.686;2024-01-07T00:36:01;15.32;;;9.93;;
60098;SDS011;62818;49.394;8.686;2024-01-07T00:38:02;12.80;;;8.80;;
60098;SDS011;62818;49.394;8.686;2024-01-07T00:40:02;13.48;;;9.32;;
60098;SDS011;62818;49.394;8.686;2024-01-07T00:42:04;17.15;;;9.18;;
60098;SDS011;62818;49.394;8.686;2024-01-07T00:44:04;19.70;;;11.18;;
60098;SDS011;62818;49.394;8.686;2024-01-07T00:46:05;16.63;;;10.50;;
60098;SDS011;62818;49.394;8.686;2024-01-07T00:48:05;18.48;;;9.35;;
60098;SDS011;62818;49.394;8.686;2024-01-07T00:50:09;14.07;;;8.90;;
60098;SDS011;62818;49.394;8.686;2024-01-07T00:52:10;14.57;;;8.93;;
60098;SDS011;62818;49.394;8.686;2024-01-07T00:54:10;17.45;;;10.82;;
60098;SDS011;62818;49.394;8.686;2024-01-07T00:56:11;13.57;;;9.38;;
60098;SDS011;62818;49.394;8.686;2024-01-07T00:58:11;13.88;;;9.20;;
60098;SDS011;62818;49.394;8.686;2024-01-07T01:00:12;17.77;;;10.50;;
60098;SDS011;62818;49.394;8.686;2024-01-07T01:02:13;16.20;;;9.45;;
60098;SDS011;62818;49.394;8.686;2024-01-07T01:04:13;16.73;;;11.80;;
60098;SDS011;62818;49.394;8.686;2024-01-07T01:06:14;16.80;;;9.73;;
60098;SDS011;62818;49.394;8.686;2024-01-07T01:08:14;16.70;;;10.65;;
60098;SDS011;62818;49.394;8.686;2024-01-07T01:10:15;14.52;;;9.55;;
60098;SDS011;62818;49.394;8.686;2024-01-07T01:12:16;17.60;;;10.80;;
60098;SDS011;62818;49.394;8.686;2024-01-07T01:14:17;15.93;;;10.43;;
60098;SDS011;62818;49.394;8.686;2024-01-07T01:16:18;16.00;;;11.13;;
60098;SDS011;62818;49.394;8.686;2024-01-07T01:18:18;16.98;;;11.65;;
60098;SDS011;62818;49.394;8.686;2024-01-07T01:20:21;13.52;;;8.73;;
60098;SDS011;62818;49.394;8.686;2024-01-07T01:22:22;15.00;;;10.23;;
60098;SDS011;62818;49.394;8.686;2024-01-07T01:24:22;14.43;;;9.35;;
60098;SDS011;62818;49.394;8.686;2024-01-07T01:26:23;15.35;;;9.93;;
60098;SDS011;62818;49.394;8.686;2024-01-07T01:28:23;12.05;;;8.82;;
60098;SDS011;62818;49.394;8.686;2024-01-07T01:30:24;14.50;;;8.73;;
60098;SDS011;62818;49.394;8.686;2024-01-07T01:32:24;18.25;;;9.30;;
60098;SDS011;62818;49.394;8.686;2024-01-07T01:34:25;14.55;;;9.45;;
60098;SDS011;62818;49.394;8.686;2024-01-07T01:36:25;17.38;;;9.85;;
60098;SDS011;62818;49.394;8.686;2024-01-07T01:38:26;11.65;;;8.70;;
60098;SDS011;62818;49.394;8.686;2024-01-07T01:40:26;10.45;;;8.20;;
60098;SDS011;62818;49.394;8.686;2024-01-07T01:42:27;14.15;;;9.15;;
60098;SDS011;62818;49.394;8.686;2024-01-07T01:44:27;12.23;;;7.95;;
60098;SDS011;62818;49.394;8.686;2024-01-07T01:46:28;13.35;;;8.50;;
60098;SDS011;62818;49.394;8.686;2024-01-07T01:48:29;9.18;;;7.63;;
60098;SDS011;62818;49.394;8.686;2024-01-07T01:50:30;9.13;;;6.95;;
60098;SDS011;62818;49.394;8.686;2024-01-07T01:52:31;12.82;;;9.15;;
60098;SDS011;62818;49.394;8.686;2024-01-07T01:54:31;13.40;;;8.43;;
60098;SDS011;62818;49.394;8.686;2024-01-07T01:56:33;14.65;;;10.25;;
60098;SDS011;62818;49.394;8.686;2024-01-07T01:58:33;9.02;;;6.60;;
60098;SDS011;62818;49.394;8.686;2024-01-07T02:00:34;8.80;;;7.68;;
60098;SDS011;62818;49.394;8.686;2024-01-07T02:02:34;14.05;;;8.75;;
60098;SDS011;62818;49.394;8.686;2024-01-07T02:04:35;13.57;;;6.40;;
60098;SDS011;62818;49.394;8.686;2024-01-07T02:06:35;11.38;;;7.45;;
60098;SDS011;62818;49.394;8.686;2024-01-07T02:08:36;8.48;;;6.10;;
60098;SDS011;62818;49.394;8.686;2024-01-07T02:10:37;8.13;;;6.28;;
60098;SDS011;62818;49.394;8.686;2024-01-07T02:12:37;8.85;;;6.90;;
60098;SDS011;62818;49.394;8.686;2024-01-07T02:14:38;8.05;;;6.32;;
60098;SDS011;62818;49.394;8.686;2024-01-07T02:16:39;10.55;;;6.75;;
60098;SDS011;62818;49.394;8.686;2024-01-07T02:18:43;8.98;;;7.15;;
60098;SDS011;62818;49.394;8.686;2024-01-07T02:20:45;8.95;;;7.00;;
60098;SDS011;62818;49.394;8.686;2024-01-07T02:22:45;8.73;;;6.15;;
60098;SDS011;62818;49.394;8.686;2024-01-07T02:24:46;6.85;;;5.82;;
60098;SDS011;62818;49.394;8.686;2024-01-07T02:26:46;8.60;;;6.68;;
60098;SDS011;62818;49.394;8.686;2024-01-07T02:28:47;10.10;;;6.75;;
60098;SDS011;62818;49.394;8.686;2024-01-07T02:30:47;8.65;;;6.03;;
60098;SDS011;62818;49.394;8.686;2024-01-07T02:32:48;7.43;;;6.20;;
60098;SDS011;62818;49.394;8.686;2024-01-07T02:34:48;9.15;;;6.30;;
60098;SDS011;62818;49.394;8.686;2024-01-07T02:36:48;7.50;;;5.00;;
60098;SDS011;62818;49.394;8.686;2024-01-07T02:38:49;8.20;;;6.45;;
60098;SDS011;62818;49.394;8.686;2024-01-07T02:40:49;9.32;;;6.00;;
60098;SDS011;62818;49.394;8.686;2024-01-07T02:42:50;12.00;;;6.07;;
60098;SDS011;62818;49.394;8.686;2024-01-07T02:44:50;8.68;;;5.93;;
60098;SDS011;62818;49.394;8.686;2024-01-07T02:46:51;10.32;;;5.60;;
60098;SDS011;62818;49.394;8.686;2024-01-07T02:48:51;8.52;;;6.05;;
60098;SDS011;62818;49.394;8.686;2024-01-07T02:50:51;10.68;;;7.00;;
60098;SDS011;62818;49.394;8.686;2024-01-07T02:52:52;8.23;;;5.90;;
60098;SDS011;62818;49.394;8.686;2024-01-07T02:54:52;10.00;;;6.60;;
60098;SDS011;62818;49.394;8.686;2024-01-07T02:56:53;8.55;;;6.40;;
60098;SDS011;62818;49.394;8.686;2024-01-07T02:58:53;7.93;;;5.68;;
60098;SDS011;62818;49.394;8.686;2024-01-07T03:00:53;7.60;;;6.05;;
60098;SDS011;62818;49.394;8.686;2024-01-07T03:02:54;7.50;;;5.78;;
60098;SDS011;62818;49.394;8.686;2024-01-07T03:04:54;9.15;;;6.07;;
60098;SDS011;62818;49.394;8.686;2024-01-07T03:06:55;8.07;;;6.07;;
60098;SDS011;62818;49.394;8.686;2024-01-07T03:08:55;6.88;;;5.93;;
60098;SDS011;62818;49.394;8.686;2024-01-07T03:10:56;7.20;;;5.78;;
60098;SDS011;62818;49.394;8.686;2024-01-07T03:12:56;6.53;;;5.65;;
60098;SDS011;62818;49.394;8.686;2024-01-07T03:14:56;8.20;;;6.30;;
60098;SDS011;62818;49.394;8.686;2024-01-07T03:16:57;8.20;;;6.10;;
60098;SDS011;62818;49.394;8.686;2024-01-07T03:18:57;8.52;;;6.25;;
60098;SDS011;62818;49.394;8.686;2024-01-07T03:20:58;8.10;;;6.43;;
60098;SDS011;62818;49.394;8.686;2024-01-07T03:23:00;8.07;;;5.72;;
60098;SDS011;62818;49.394;8.686;2024-01-07T03:25:01;6.32;;;5.15;;
60098;SDS011;62818;49.394;8.686;2024-01-07T03:27:01;8.93;;;6.35;;
60098;SDS011;62818;49.394;8.686;2024-01-07T03:29:02;7.53;;;5.60;;
60098;SDS011;62818;49.394;8.686;2024-01-07T03:31:08;6.85;;;6.22;;
60098;SDS011;62818;49.394;8.686;2024-01-07T03:33:14;9.40;;;6.18;;
60098;SDS011;62818;49.394;8.686;2024-01-07T03:35:15;8.50;;;5.90;;
60098;SDS011;62818;49.394;8.686;2024-01-07T03:37:15;8.73;;;6.68;;
60098;SDS011;62818;49.394;8.686;2024-01-07T03:39:17;11.63;;;6.85;;
60098;SDS011;62818;49.394;8.686;2024-01-07T03:41:17;8.55;;;5.95;;
60098;SDS011;62818;49.394;8.686;2024-01-07T03:43:19;7.35;;;5.93;;
60098;SDS011;62818;49.394;8.686;2024-01-07T03:45:20;6.95;;;6.05;;
60098;SDS011;62818;49.394;8.686;2024-01-07T03:47:20;8.75;;;6.55;;
60098;SDS011;62818;49.394;8.686;2024-01-07T03:49:21;8.55;;;6.53;;
60098;SDS011;62818;49.394;8.686;2024-01-07T03:51:21;11.18;;;6.78;;
60098;SDS011;62818;49.394;8.686;2024-01-07T03:53:22;9.38;;;7.40;;
60098;SDS011;62818;49.394;8.686;2024-01-07T03:55:23;8.95;;;6.70;;
60098;SDS011;62818;49.394;8.686;2024-01-07T03:57:24;10.73;;;6.93;;
60098;SDS011;62818;49.394;8.686;2024-01-07T03:59:24;10.73;;;7.30;;
60098;SDS011;62818;49.394;8.686;2024-01-07T04:01:25;9.40;;;7.28;;
60098;SDS011;62818;49.394;8.686;2024-01-07T04:03:25;10.73;;;6.90;;
60098;SDS011;62818;49.394;8.686;2024-01-07T04:05:26;8.45;;;6.90;;
60098;SDS011;62818;49.394;8.686;2024-01-07T04:07:27;10.23;;;7.20;;
60098;SDS011;62818;49.394;8.686;2024-01-07T04:09:27;9.15;;;7.28;;
60098;SDS011;62818;49.394;8.686;2024-01-07T04:11:27;12.20;;;8.27;;
60098;SDS011;62818;49.394;8.686;2024-01-07T04:13:28;12.95;;;8.95;;
60098;SDS011;62818;49.394;8.686;2024-01-07T04:15:29;9.35;;;7.28;;
60098;SDS011;62818;49.394;8.686;2024-01-07T04:17:29;10.65;;;8.25;;
60098;SDS011;62818;49.394;8.686;2024-01-07T04:19:30;8.07;;;6.80;;
60098;SDS011;62818;49.394;8.686;2024-01-07T04:21:30;10.07;;;7.32;;
60098;SDS011;62818;49.394;8.686;2024-01-07T04:23:31;8.98;;;7.70;;
60098;SDS011;62818;49.394;8.686;2024-01-07T04:25:31;9.55;;;7.75;;
60098;SDS011;62818;49.394;8.686;2024-01-07T04:27:34;8.93;;;7.33;;
60098;SDS011;62818;49.394;8.686;2024-01-07T04:29:35;13.00;;;8.13;;
60098;SDS011;62818;49.394;8.686;2024-01-07T04:31:36;9.93;;;7.30;;
60098;SDS011;62818;49.394;8.686;2024-01-07T04:33:36;8.52;;;6.55;;
60098;SDS011;62818;49.394;8.686;2024-01-07T04:35:37;8.20;;;6.50;;
60098;SDS011;62818;49.394;8.686;2024-01-07T04:37:37;8.40;;;6.85;;
60098;SDS011;62818;49.394;8.686;2024-01-07T04:39:38;9.20;;;6.53;;
60098;SDS011;62818;49.394;8.686;2024-01-07T04:41:39;10.77;;;7.43;;
60098;SDS011;62818;49.394;8.686;2024-01-07T04:43:39;8.50;;;7.30;;
60098;SDS011;62818;49.394;8.686;2024-01-07T04:45:42;9.40;;;7.38;;
60098;SDS011;62818;49.394;8.686;2024-01-07T04:47:43;10.00;;;8.45;;
60098;SDS011;62818;49.394;8.686;2024-01-07T04:49:43;8.65;;;6.65;;
60098;SDS011;62818;49.394;8.686;2024-01-07T04:51:43;9.93;;;7.70;;
60098;SDS011;62818;49.394;8.686;2024-01-07T04:53:44;9.43;;;7.25;;
60098;SDS011;62818;49.394;8.686;2024-01-07T04:55:44;9.10;;;6.90;;
60098;SDS011;62818;49.394;8.686;2024-01-07T04:57:45;8.45;;;6.45;;
60098;SDS011;62818;49.394;8.686;2024-01-07T04:59:46;8.32;;;6.50;;
60098;SDS011;62818;49.394;8.686;2024-01-07T05:01:48;7.50;;;6.35;;
60098;SDS011;62818;49.394;8.686;2024-01-07T05:03:48;9.30;;;7.85;;
60098;SDS011;62818;49.394;8.686;2024-01-07T05:05:49;8.55;;;6.93;;
60098;SDS011;62818;49.394;8.686;2024-01-07T05:07:49;8.43;;;6.78;;
60098;SDS011;62818;49.394;8.686;2024-01-07T05:09:49;8.82;;;6.72;;
60098;SDS011;62818;49.394;8.686;2024-01-07T05:11:50;9.00;;;6.80;;
60098;SDS011;62818;49.394;8.686;2024-01-07T05:13:50;7.18;;;6.13;;
60098;SDS011;62818;49.394;8.686;2024-01-07T05:15:51;7.95;;;5.68;;
60098;SDS011;62818;49.394;8.686;2024-01-07T05:17:53;8.60;;;6.45;;
60098;SDS011;62818;49.394;8.686;2024-01-07T05:19:54;8.68;;;6.85;;
60098;SDS011;62818;49.394;8.686;2024-01-07T05:21:54;7.32;;;6.18;;
60098;SDS011;62818;49.394;8.686;2024-01-07T05:23:55;8.35;;;6.57;;
60098;SDS011;62818;49.394;8.686;2024-01-07T05:25:55;9.13;;;6.90;;
60098;SDS011;62818;49.394;8.686;2024-01-07T05:27:56;8.15;;;6.60;;
60098;SDS011;62818;49.394;8.686;2024-01-07T05:29:56;7.25;;;5.65;;
60098;SDS011;62818;49.394;8.686;2024-01-07T05:31:57;8.02;;;6.55;;
60098;SDS011;62818;49.394;8.686;2024-01-07T05:34:00;9.30;;;6.43;;
60098;SDS011;62818;49.394;8.686;2024-01-07T05:36:00;10.25;;;6.53;;
60098;SDS011;62818;49.394;8.686;2024-01-07T05:38:01;8.32;;;6.03;;
60098;SDS011;62818;49.394;8.686;2024-01-07T05:40:01;10.13;;;6.20;;
60098;SDS011;62818;49.394;8.686;2024-01-07T05:42:02;9.52;;;7.45;;
60098;SDS011;62818;49.394;8.686;2024-01-07T05:44:03;7.68;;;6.30;;
60098;SDS011;62818;49.394;8.686;2024-01-07T05:46:03;8.00;;;6.20;;
60098;SDS011;62818;49.394;8.686;2024-01-07T05:48:04;7.18;;;5.78;;
60098;SDS011;62818;49.394;8.686;2024-01-07T05:50:05;9.95;;;6.65;;
60098;SDS011;62818;49.394;8.686;2024-01-07T05:52:06;8.50;;;6.78;;
60098;SDS011;62818;49.394;8.686;2024-01-07T05:54:06;8.30;;;6.70;;
60098;SDS011;62818;49.394;8.686;2024-01-07T05:56:07;8.45;;;6.70;;
60098;SDS011;62818;49.394;8.686;2024-01-07T05:58:07;6.95;;;6.00;;
60098;SDS011;62818;49.394;8.686;2024-01-07T06:00:08;8.25;;;6.15;;
60098;SDS011;62818;49.394;8.686;2024-01-07T06:02:11;8.25;;;7.03;;
60098;SDS011;62818;49.394;8.686;2024-01-07T06:04:12;6.70;;;6.07;;
60098;SDS011;62818;49.394;8.686;2024-01-07T06:06:12;6.78;;;5.75;;
60098;SDS011;62818;49.394;8.686;2024-01-07T06:08:14;7.80;;;6.32;;
60098;SDS011;62818;49.394;8.686;2024-01-07T06:10:15;10.00;;;6.32;;
60098;SDS011;62818;49.394;8.686;2024-01-07T06:12:15;8.23;;;6.72;;
60098;SDS011;62818;49.394;8.686;2024-01-07T06:14:16;11.02;;;7.65;;
60098;SDS011;62818;49.394;8.686;2024-01-07T06:16:16;8.35;;;6.00;;
60098;SDS011;62818;49.394;8.686;2024-01-07T06:18:16;14.70;;;7.35;;
60098;SDS011;62818;49.394;8.686;2024-01-07T06:20:17;13.57;;;6.93;;
60098;SDS011;62818;49.394;8.686;2024-01-07T06:22:18;8.07;;;6.32;;
60098;SDS011;62818;49.394;8.686;2024-01-07T06:24:18;7.72;;;5.75;;
60098;SDS011;62818;49.394;8.686;2024-01-07T06:26:18;6.93;;;5.60;;
60098;SDS011;62818;49.394;8.686;2024-01-07T06:28:19;8.20;;;6.45;;
60098;SDS011;62818;49.394;8.686;2024-01-07T06:30:20;8.80;;;6.45;;
60098;SDS011;62818;49.394;8.686;2024-01-07T06:32:20;9.73;;;6.95;;
60098;SDS011;62818;49.394;8.686;2024-01-07T06:34:21;9.63;;;6.07;;
60098;SDS011;62818;49.394;8.686;2024-01-07T06:36:22;8.50;;;6.70;;
60098;SDS011;62818;49.394;8.686;2024-01-07T06:38:22;11.15;;;7.80;;
60098;SDS011;62818;49.394;8.686;2024-01-07T06:40:24;11.85;;;6.47;;
60098;SDS011;62818;49.394;8.686;2024-01-07T06:42:25;9.40;;;6.40;;
60098;SDS011;62818;49.394;8.686;2024-01-07T06:44:26;8.57;;;6.22;;
60098;SDS011;62818;49.394;8.686;2024-01-07T06:46:26;9.43;;;6.82;;
60098;SDS011;62818;49.394;8.686;2024-01-07T06:48:27;10.27;;;7.60;;
60098;SDS011;62818;49.394;8.686;2024-01-07T06:50:27;8.38;;;6.70;;
60098;SDS011;62818;49.394;8.686;2024-01-07T06:52:28;9.23;;;6.70;;
60098;SDS011;62818;49.394;8.686;2024-01-07T06:54:28;9.20;;;7.50;;
60098;SDS011;62818;49.394;8.686;2024-01-07T06:56:29;11.35;;;8.70;;
60098;SDS011;62818;49.394;8.686;2024-01-07T06:58:29;10.73;;;7.60;;
60098;SDS011;62818;49.394;8.686;2024-01-07T07:00:30;13.50;;;7.75;;
60098;SDS011;62818;49.394;8.686;2024-01-07T07:02:30;10.93;;;7.35;;
60098;SDS011;62818;49.394;8.686;2024-01-07T07:04:31;10.30;;;8.10;;
60098;SDS011;62818;49.394;8.686;2024-01-07T07:06:31;13.82;;;8.80;;
60098;SDS011;62818;49.394;8.686;2024-01-07T07:08:32;12.13;;;8.63;;
60098;SDS011;62818;49.394;8.686;2024-01-07T07:10:32;11.93;;;8.38;;
60098;SDS011;62818;49.394;8.686;2024-01-07T07:12:33;11.88;;;8.20;;
60098;SDS011;62818;49.394;8.686;2024-01-07T07:14:33;12.27;;;8.60;;
60098;SDS011;62818;49.394;8.686;2024-01-07T07:16:34;11.60;;;8.30;;
60098;SDS011;62818;49.394;8.686;2024-01-07T07:18:35;11.77;;;8.85;;
60098;SDS011;62818;49.394;8.686;2024-01-07T07:20:35;13.10;;;9.77;;
60098;SDS011;62818;49.394;8.686;2024-01-07T07:22:38;13.18;;;8.10;;
60098;SDS011;62818;49.394;8.686;2024-01-07T07:24:40;19.20;;;10.52;;
60098;SDS011;62818;49.394;8.686;2024-01-07T07:26:41;12.25;;;9.02;;
60098;SDS011;62818;49.394;8.686;2024-01-07T07:28:42;12.20;;;8.57;;
60098;SDS011;62818;49.394;8.686;2024-01-07T07:30:42;11.95;;;8.48;;
60098;SDS011;62818;49.394;8.686;2024-01-07T07:32:43;12.57;;;9.00;;
60098;SDS011;62818;49.394;8.686;2024-01-07T07:34:44;12.13;;;8.43;;
60098;SDS011;62818;49.394;8.686;2024-01-07T07:36:44;14.73;;;10.45;;
60098;SDS011;62818;49.394;8.686;2024-01-07T07:38:45;13.45;;;9.07;;
60098;SDS011;62818;49.394;8.686;2024-01-07T07:40:45;14.90;;;10.10;;
60098;SDS011;62818;49.394;8.686;2024-01-07T07:42:52;14.00;;;10.05;;
60098;SDS011;62818;49.394;8.686;2024-01-07T07:44:52;14.50;;;9.68;;
60098;SDS011;62818;49.394;8.686;2024-01-07T07:46:53;14.10;;;8.90;;
60098;SDS011;62818;49.394;8.686;2024-01-07T07:48:53;15.15;;;10.38;;
60098;SDS011;62818;49.394;8.686;2024-01-07T07:50:54;12.48;;;9.20;;
60098;SDS011;62818;49.394;8.686;2024-01-07T07:52:55;16.08;;;10.10;;
60098;SDS011;62818;49.394;8.686;2024-01-07T07:54:55;13.55;;;8.57;;
60098;SDS011;62818;49.394;8.686;2024-01-07T07:56:55;15.75;;;9.98;;
60098;SDS011;62818;49.394;8.686;2024-01-07T07:58:56;16.73;;;11.30;;
60098;SDS011;62818;49.394;8.686;2024-01-07T08:00:56;15.15;;;10.10;;
60098;SDS011;62818;49.394;8.686;2024-01-07T08:02:57;16.52;;;10.02;;
60098;SDS011;62818;49.394;8.686;2024-01-07T08:05:01;14.23;;;9.80;;
60098;SDS011;62818;49.394;8.686;2024-01-07T08:07:01;16.30;;;10.82;;
60098;SDS011;62818;49.394;8.686;2024-01-07T08:09:02;18.33;;;10.32;;
60098;SDS011;62818;49.394;8.686;2024-01-07T08:11:03;15.88;;;10.80;;
60098;SDS011;62818;49.394;8.686;2024-01-07T08:13:07;17.55;;;12.13;;
60098;SDS011;62818;49.394;8.686;2024-01-07T08:15:08;16.58;;;12.13;;
60098;SDS011;62818;49.394;8.686;2024-01-07T08:17:09;17.48;;;11.00;;
60098;SDS011;62818;49.394;8.686;2024-01-07T08:19:10;16.38;;;10.52;;
60098;SDS011;62818;49.394;8.686;2024-01-07T08:21:10;14.68;;;9.82;;
60098;SDS011;62818;49.394;8.686;2024-01-07T08:23:11;16.95;;;11.30;;
60098;SDS011;62818;49.394;8.686;2024-01-07T08:25:11;16.85;;;12.13;;
60098;SDS011;62818;49.394;8.686;2024-01-07T08:27:13;16.75;;;12.57;;
60098;SDS011;62818;49.394;8.686;2024-01-07T08:29:13;15.48;;;12.10;;
60098;SDS011;62818;49.394;8.686;2024-01-07T08:31:14;17.23;;;11.40;;
60098;SDS011;62818;49.394;8.686;2024-01-07T08:33:14;16.65;;;11.15;;
60098;SDS011;62818;49.394;8.686;2024-01-07T08:35:15;17.20;;;11.60;;
60098;SDS011;62818;49.394;8.686;2024-01-07T08:37:15;15.30;;;11.50;;
60098;SDS011;62818;49.394;8.686;2024-01-07T08:39:16;16.70;;;12.68;;
60098;SDS011;62818;49.394;8.686;2024-01-07T08:41:17;20.80;;;13.88;;
60098;SDS011;62818;49.394;8.686;2024-01-07T08:43:18;20.63;;;12.48;;
60098;SDS011;62818;49.394;8.686;2024-01-07T08:45:18;13.90;;;11.27;;
60098;SDS011;62818;49.394;8.686;2024-01-07T08:47:19;16.48;;;12.65;;
60098;SDS011;62818;49.394;8.686;2024-01-07T08:49:19;18.95;;;11.27;;
60098;SDS011;62818;49.394;8.686;2024-01-07T08:51:20;15.02;;;11.15;;
60098;SDS011;62818;49.394;8.686;2024-01-07T08:53:20;16.95;;;11.45;;
60098;SDS011;62818;49.394;8.686;2024-01-07T08:55:22;17.77;;;11.43;;
60098;SDS011;62818;49.394;8.686;2024-01-07T08:57:22;19.52;;;12.73;;
60098;SDS011;62818;49.394;8.686;2024-01-07T08:59:23;14.23;;;10.52;;
60098;SDS011;62818;49.394;8.686;2024-01-07T09:01:24;15.85;;;11.75;;
60098;SDS011;62818;49.394;8.686;2024-01-07T09:03:24;16.52;;;11.25;;
60098;SDS011;62818;49.394;8.686;2024-01-07T09:05:25;14.68;;;10.95;;
60098;SDS011;62818;49.394;8.686;2024-01-07T09:07:25;17.65;;;12.88;;
60098;SDS011;62818;49.394;8.686;2024-01-07T09:09:26;20.67;;;12.95;;
60098;SDS011;62818;49.394;8.686;2024-01-07T09:11:26;15.82;;;10.55;;
60098;SDS011;62818;49.394;8.686;2024-01-07T09:13:26;16.63;;;10.15;;
60098;SDS011;62818;49.394;8.686;2024-01-07T09:15:27;23.48;;;13.70;;
60098;SDS011;62818;49.394;8.686;2024-01-07T09:17:28;16.42;;;11.25;;
60098;SDS011;62818;49.394;8.686;2024-01-07T09:19:28;20.83;;;12.68;;
60098;SDS011;62818;49.394;8.686;2024-01-07T09:21:29;12.75;;;10.85;;
60098;SDS011;62818;49.394;8.686;2024-01-07T09:23:30;16.80;;;11.50;;
60098;SDS011;62818;49.394;8.686;2024-01-07T09:25:30;16.23;;;11.38;;
60098;SDS011;62818;49.394;8.686;2024-01-07T09:27:31;13.55;;;9.55;;
60098;SDS011;62818;49.394;8.686;2024-01-07T09:29:33;8.50;;;7.00;;
60098;SDS011;62818;49.394;8.686;2024-01-07T09:31:33;7.60;;;6.80;;
60098;SDS011;62818;49.394;8.686;2024-01-07T09:33:34;6.40;;;5.47;;
60098;SDS011;62818;49.394;8.686;2024-01-07T09:35:34;5.90;;;4.38;;
60098;SDS011;62818;49.394;8.686;2024-01-07T09:37:35;4.70;;;3.65;;
60098;SDS011;62818;49.394;8.686;2024-01-07T09:39:39;6.78;;;4.30;;
60098;SDS011;62818;49.394;8.686;2024-01-07T09:41:41;5.95;;;3.97;;
60098;SDS011;62818;49.394;8.686;2024-01-07T09:43:41;4.88;;;3.97;;
60098;SDS011;62818;49.394;8.686;2024-01-07T09:45:42;3.45;;;3.15;;
60098;SDS011;62818;49.394;8.686;2024-01-07T09:47:48;5.35;;;3.85;;
60098;SDS011;62818;49.394;8.686;2024-01-07T09:49:49;3.78;;;3.47;;
60098;SDS011;62818;49.394;8.686;2024-01-07T09:51:49;4.60;;;3.50;;
60098;SDS011;62818;49.394;8.686;2024-01-07T09:54:00;5.80;;;4.13;;
60098;SDS011;62818;49.394;8.686;2024-01-07T09:58:32;6.53;;;3.78;;
60098;SDS011;62818;49.394;8.686;2024-01-07T10:00:33;3.53;;;3.20;;
60098;SDS011;62818;49.394;8.686;2024-01-07T10:02:34;3.63;;;3.33;;
60098;SDS011;62818;49.394;8.686;2024-01-07T10:04:35;3.83;;;3.53;;
60098;SDS011;62818;49.394;8.686;2024-01-07T10:06:36;4.13;;;3.72;;
60098;SDS011;62818;49.394;8.686;2024-01-07T10:08:38;4.68;;;3.75;;
60098;SDS011;62818;49.394;8.686;2024-01-07T10:10:39;3.78;;;3.47;;
60098;SDS011;62818;49.394;8.686;2024-01-07T10:12:44;3.88;;;3.28;;
60098;SDS011;62818;49.394;8.686;2024-01-07T10:14:46;3.80;;;3.50;;
60098;SDS011;62818;49.394;8.686;2024-01-07T10:16:46;4.35;;;3.95;;
60098;SDS011;62818;49.394;8.686;2024-01-07T10:18:47;4.40;;;4.00;;
60098;SDS011;62818;49.394;8.686;2024-01-07T10:20:47;4.18;;;3.78;;
60098;SDS011;62818;49.394;8.686;2024-01-07T10:22:51;4.45;;;3.50;;
60098;SDS011;62818;49.394;8.686;2024-01-07T10:24:52;6.03;;;3.30;;
60098;SDS011;62818;49.394;8.686;2024-01-07T10:26:52;4.75;;;3.60;;
60098;SDS011;62818;49.394;8.686;2024-01-07T10:28:53;4.85;;;4.45;;
60098;SDS011;62818;49.394;8.686;2024-01-07T10:30:54;4.15;;;3.83;;
60098;SDS011;62818;49.394;8.686;2024-01-07T10:32:55;3.58;;;3.28;;
60098;SDS011;62818;49.394;8.686;2024-01-07T10:35:02;3.88;;;3.53;;
60098;SDS011;62818;49.394;8.686;2024-01-07T10:37:04;8.05;;;3.53;;
60098;SDS011;62818;49.394;8.686;2024-01-07T10:39:05;4.20;;;3.55;;
60098;SDS011;62818;49.394;8.686;2024-01-07T10:41:05;5.25;;;4.22;;
60098;SDS011;62818;49.394;8.686;2024-01-07T10:43:09;4.88;;;3.75;;
60098;SDS011;62818;49.394;8.686;2024-01-07T10:45:09;3.88;;;3.45;;
60098;SDS011;62818;49.394;8.686;2024-01-07T10:47:10;6.40;;;3.95;;
60098;SDS011;62818;49.394;8.686;2024-01-07T10:49:19;4.00;;;3.60;;
60098;SDS011;62818;49.394;8.686;2024-01-07T10:51:21;3.60;;;3.28;;
60098;SDS011;62818;49.394;8.686;2024-01-07T10:53:22;3.85;;;3.45;;
60098;SDS011;62818;49.394;8.686;2024-01-07T10:55:27;3.88;;;3.50;;
60098;SDS011;62818;49.394;8.686;2024-01-07T10:57:48;4.28;;;3.88;;
60098;SDS011;62818;49.394;8.686;2024-01-07T10:59:50;3.83;;;3.45;;
60098;SDS011;62818;49.394;8.686;2024-01-07T11:01:53;3.85;;;3.47;;
60098;SDS011;62818;49.394;8.686;2024-01-07T11:06:48;4.70;;;3.53;;
60098;SDS011;62818;49.394;8.686;2024-01-07T11:09:12;4.10;;;3.50;;
60098;SDS011;62818;49.394;8.686;2024-01-07T11:11:27;4.13;;;3.83;;
60098;SDS011;62818;49.394;8.686;2024-01-07T11:13:41;4.13;;;3.60;;
60098;SDS011;62818;49.394;8.686;2024-01-07T11:17:48;3.20;;;3.00;;
60098;SDS011;62818;49.394;8.686;2024-01-07T11:19:49;3.97;;;3.67;;
60098;SDS011;62818;49.394;8.686;2024-01-07T11:24:38;3.58;;;3.28;;
60098;SDS011;62818;49.394;8.686;2024-01-07T11:26:39;3.90;;;3.60;;
60098;SDS011;62818;49.394;8.686;2024-01-07T11:28:51;4.03;;;3.65;;
60098;SDS011;62818;49.394;8.686;2024-01-07T11:30:56;5.10;;;3.78;;
60098;SDS011;62818;49.394;8.686;2024-01-07T11:32:58;4.60;;;4.15;;
60098;SDS011;62818;49.394;8.686;2024-01-07T11:35:00;3.95;;;3.58;;
60098;SDS011;62818;49.394;8.686;2024-01-07T11:37:02;4.05;;;3.67;;
60098;SDS011;62818;49.394;8.686;2024-01-07T11:39:09;5.57;;;5.00;;
60098;SDS011;62818;49.394;8.686;2024-01-07T11:41:11;7.97;;;5.80;;
60098;SDS011;62818;49.394;8.686;2024-01-07T11:43:13;6.88;;;5.80;;
60098;SDS011;62818;49.394;8.686;2024-01-07T11:45:14;7.07;;;6.38;;
60098;SDS011;62818;49.394;8.686;2024-01-07T11:47:16;8.48;;;6.57;;
60098;SDS011;62818;49.394;8.686;2024-01-07T11:49:17;7.40;;;6.68;;
60098;SDS011;62818;49.394;8.686;2024-01-07T11:51:18;6.30;;;5.47;;
60098;SDS011;62818;49.394;8.686;2024-01-07T11:53:18;6.55;;;5.95;;
60098;SDS011;62818;49.394;8.686;2024-01-07T11:55:20;6.80;;;5.82;;
60098;SDS011;62818;49.394;8.686;2024-01-07T11:57:22;7.88;;;6.07;;
60098;SDS011;62818;49.394;8.686;2024-01-07T11:59:23;5.78;;;4.88;;
60098;SDS011;62818;49.394;8.686;2024-01-07T12:01:24;6.35;;;5.00;;
60098;SDS011;62818;49.394;8.686;2024-01-07T12:03:26;6.75;;;5.70;;
60098;SDS011;62818;49.394;8.686;2024-01-07T12:05:27;7.47;;;5.95;;
60098;SDS011;62818;49.394;8.686;2024-01-07T12:07:28;8.55;;;6.55;;
60098;SDS011;62818;49.394;8.686;2024-01-07T12:09:28;6.85;;;6.15;;
60098;SDS011;62818;49.394;8.686;2024-01-07T12:11:30;7.63;;;6.60;;
60098;SDS011;62818;49.394;8.686;2024-01-07T12:13:30;7.93;;;6.45;;